createdAt,value
2023-06-18T00:00:47.860Z,23.00
2023-06-18T00:03:24.368Z,23.00
2023-06-18T00:06:02.435Z,22.90
2023-06-18T00:08:44.137Z,22.90
2023-06-18T00:11:21.035Z,22.90
2023-06-18T00:14:05.119Z,23.00
2023-06-18T00:16:53.856Z,23.00
2023-06-18T00:19:30.339Z,23.00
2023-06-18T00:22:07.259Z,23.10
2023-06-18T00:24:39.240Z,23.00
2023-06-18T00:27:15.762Z,23.10
2023-06-18T00:29:52.341Z,23.10
2023-06-18T00:32:36.970Z,23.00
2023-06-18T00:35:12.611Z,23.10
2023-06-18T00:37:48.013Z,23.00
2023-06-18T00:40:27.912Z,23.00
2023-06-18T00:43:09.717Z,23.00
2023-06-18T00:45:54.836Z,22.90
2023-06-18T00:48:26.957Z,22.90
2023-06-18T00:51:04.219Z,22.90
2023-06-18T00:53:48.008Z,22.80
2023-06-18T00:56:34.367Z,22.80
2023-06-18T00:59:14.249Z,22.80
2023-06-18T01:01:52.162Z,22.80
2023-06-18T01:04:38.827Z,22.80
2023-06-18T01:07:21.713Z,22.70
2023-06-18T01:10:01.124Z,22.60
2023-06-18T01:12:35.386Z,22.60
2023-06-18T01:15:31.378Z,22.50
2023-06-18T01:18:19.338Z,22.50
2023-06-18T01:21:00.710Z,22.50
2023-06-18T01:23:47.510Z,22.50
2023-06-18T01:26:24.453Z,22.60
2023-06-18T01:29:06.484Z,22.50
2023-06-18T01:31:51.536Z,22.50
2023-06-18T01:34:34.164Z,22.50
2023-06-18T01:37:23.864Z,22.40
2023-06-18T01:40:12.598Z,22.50
2023-06-18T01:42:57.323Z,22.50
2023-06-18T01:45:41.178Z,22.50
2023-06-18T01:48:19.725Z,22.50
2023-06-18T01:51:04.585Z,22.50
2023-06-18T01:53:52.981Z,22.40
2023-06-18T01:56:35.356Z,22.50
2023-06-18T01:59:17.114Z,22.50
2023-06-18T02:02:03.767Z,22.50
2023-06-18T02:04:45.248Z,22.50
2023-06-18T02:07:25.965Z,22.50
2023-06-18T02:10:11.049Z,22.50
2023-06-18T02:12:50.626Z,22.50
2023-06-18T02:15:39.592Z,22.50
2023-06-18T02:18:22.461Z,22.50
2023-06-18T02:20:58.850Z,22.40
2023-06-18T02:23:39.197Z,22.40
2023-06-18T02:26:18.009Z,22.50
2023-06-18T02:28:56.302Z,22.40
2023-06-18T02:31:39.158Z,22.40
2023-06-18T02:34:12.238Z,22.40
2023-06-18T02:37:01.202Z,22.40
2023-06-18T02:39:44.421Z,22.40
2023-06-18T02:42:25.464Z,22.50
2023-06-18T02:45:01.301Z,22.40
2023-06-18T02:47:33.323Z,22.40
2023-06-18T02:50:15.033Z,22.40
2023-06-18T02:53:07.601Z,22.50
2023-06-18T02:55:50.841Z,22.50
2023-06-18T02:58:31.898Z,22.30
2023-06-18T03:01:17.280Z,22.30
2023-06-18T03:04:02.348Z,22.30
2023-06-18T03:06:37.078Z,22.40
2023-06-18T03:09:20.347Z,22.40
2023-06-18T03:11:52.012Z,22.40
2023-06-18T03:14:41.946Z,22.30
2023-06-18T03:17:21.189Z,22.30
2023-06-18T03:20:01.694Z,22.30
2023-06-18T03:22:42.880Z,22.30
2023-06-18T03:25:32.609Z,22.20
2023-06-18T03:28:13.469Z,22.20
2023-06-18T03:30:53.946Z,22.10
2023-06-18T03:33:25.929Z,22.20
2023-06-18T03:36:01.976Z,22.30
2023-06-18T03:38:52.543Z,22.20
2023-06-18T03:41:41.757Z,22.20
2023-06-18T03:44:22.995Z,22.20
2023-06-18T03:47:03.878Z,22.20
2023-06-18T03:49:41.523Z,22.20
2023-06-18T03:52:20.777Z,22.30
2023-06-18T03:54:59.307Z,22.40
2023-06-18T03:57:39.526Z,22.40
2023-06-18T04:00:23.196Z,22.50
2023-06-18T04:03:11.801Z,22.40
2023-06-18T04:05:50.188Z,22.60
2023-06-18T04:08:28.626Z,22.60
2023-06-18T04:11:07.089Z,22.60
2023-06-18T04:14:00.092Z,22.70
2023-06-18T04:16:44.470Z,22.80
2023-06-18T04:19:18.464Z,22.80
2023-06-18T04:22:02.654Z,22.80
2023-06-18T04:24:43.518Z,22.80
2023-06-18T04:27:27.172Z,22.60
2023-06-18T04:30:06.138Z,22.60
2023-06-18T04:32:49.226Z,22.60
2023-06-18T04:35:32.094Z,22.70
2023-06-18T04:38:14.534Z,22.80
2023-06-18T04:40:53.611Z,22.80
2023-06-18T04:43:26.579Z,22.80
2023-06-18T04:46:03.549Z,22.80
2023-06-18T04:48:56.199Z,22.80
2023-06-18T04:51:37.544Z,22.80
2023-06-18T04:54:17.653Z,22.90
2023-06-18T04:56:48.827Z,23.00
2023-06-18T04:59:35.103Z,23.10
2023-06-18T05:02:19.080Z,23.20
2023-06-18T05:04:56.194Z,23.30
2023-06-18T05:07:41.312Z,23.30
2023-06-18T05:10:28.593Z,23.40
2023-06-18T05:13:09.042Z,23.40
2023-06-18T05:15:47.295Z,23.30
2023-06-18T05:18:42.384Z,23.30
2023-06-18T05:21:24.922Z,23.30
2023-06-18T05:24:12.772Z,23.30
2023-06-18T05:26:53.089Z,23.30
2023-06-18T05:29:34.922Z,23.30
2023-06-18T05:32:16.092Z,23.30
2023-06-18T05:34:59.596Z,23.30
2023-06-18T05:40:37.181Z,23.00
2023-06-18T05:43:14.895Z,23.10
2023-06-18T05:45:56.082Z,23.20
2023-06-18T05:48:34.438Z,23.30
2023-06-18T05:51:34.429Z,23.40
2023-06-18T05:57:11.761Z,23.30
2023-06-18T05:59:50.877Z,23.50
2023-06-18T06:02:29.210Z,23.50
2023-06-18T06:05:06.751Z,23.60
2023-06-18T06:10:50.771Z,23.50
2023-06-18T06:13:24.461Z,23.60
2023-06-18T06:16:29.146Z,23.70
2023-06-18T06:19:11.477Z,23.70
2023-06-18T06:21:46.126Z,23.70
2023-06-18T06:24:35.243Z,23.70
2023-06-18T06:27:11.411Z,23.70
2023-06-18T06:29:50.403Z,23.70
2023-06-18T06:32:39.660Z,23.70
2023-06-18T06:35:18.639Z,23.60
2023-06-18T06:37:59.207Z,23.40
2023-06-18T06:40:32.802Z,23.30
2023-06-18T06:43:08.192Z,23.10
2023-06-18T06:46:12.091Z,23.10
2023-06-18T06:49:03.789Z,22.90
2023-06-18T06:52:11.347Z,22.70
2023-06-18T06:54:42.582Z,22.50
2023-06-18T06:57:14.743Z,22.40
2023-06-18T06:59:49.303Z,22.40
2023-06-18T07:02:36.699Z,22.30
2023-06-18T07:05:19.969Z,22.40
2023-06-18T07:07:53.730Z,22.40
2023-06-18T07:10:35.514Z,22.40
2023-06-18T07:13:07.753Z,22.30
2023-06-18T07:15:38.952Z,22.20
2023-06-18T07:18:19.325Z,22.20
2023-06-18T07:20:58.923Z,22.20
2023-06-18T07:23:39.798Z,22.30
2023-06-18T07:26:21.578Z,22.20
2023-06-18T07:28:56.681Z,22.20
2023-06-18T07:31:27.124Z,22.30
2023-06-18T07:34:06.825Z,22.30
2023-06-18T07:36:54.209Z,22.30
2023-06-18T07:39:24.534Z,22.40
2023-06-18T07:42:03.697Z,22.50
2023-06-18T07:44:48.664Z,22.60
2023-06-18T07:47:20.272Z,22.60
2023-06-18T07:49:59.096Z,22.60
2023-06-18T07:52:31.809Z,22.60
2023-06-18T07:55:12.805Z,22.70
2023-06-18T07:57:52.489Z,22.80
2023-06-18T08:00:32.161Z,22.90
2023-06-18T08:03:14.446Z,23.20
2023-06-18T08:05:55.118Z,23.40
2023-06-18T08:08:33.979Z,23.50
2023-06-18T08:11:06.193Z,23.60
2023-06-18T08:14:04.056Z,23.70
2023-06-18T08:16:53.630Z,23.80
2023-06-18T08:19:34.963Z,24.10
2023-06-18T08:22:18.830Z,24.10
2023-06-18T08:25:01.068Z,24.10
2023-06-18T08:27:41.852Z,24.10
2023-06-18T08:30:21.692Z,24.10
2023-06-18T08:32:59.543Z,24.30
2023-06-18T08:35:34.068Z,24.30
2023-06-18T08:38:14.177Z,24.40
2023-06-18T08:40:58.178Z,24.50
2023-06-18T08:43:39.178Z,24.60
2023-06-18T08:46:14.403Z,24.60
2023-06-18T08:49:08.258Z,24.60
2023-06-18T08:51:53.704Z,24.50
2023-06-18T08:54:38.380Z,24.20
2023-06-18T08:57:23.589Z,24.00
2023-06-18T09:00:01.425Z,24.00
2023-06-18T09:02:32.836Z,24.10
2023-06-18T09:05:25.611Z,24.10
2023-06-18T09:08:01.520Z,24.10
2023-06-18T09:10:40.483Z,24.20
2023-06-18T09:13:10.246Z,24.30
2023-06-18T09:15:47.484Z,24.40
2023-06-18T09:18:27.106Z,24.40
2023-06-18T09:21:44.505Z,24.40
2023-06-18T09:24:26.075Z,24.50
2023-06-18T09:27:18.859Z,24.60
2023-06-18T09:30:02.133Z,24.60
2023-06-18T09:32:52.395Z,24.40
2023-06-18T09:35:32.470Z,24.30
2023-06-18T09:38:19.045Z,24.20
2023-06-18T09:40:56.872Z,24.10
2023-06-18T09:43:39.350Z,23.90
2023-06-18T09:46:17.700Z,23.90
2023-06-18T09:49:00.516Z,24.00
2023-06-18T09:51:44.089Z,24.20
2023-06-18T09:54:24.627Z,24.30
2023-06-18T09:57:04.471Z,24.30
2023-06-18T09:59:39.096Z,24.40
2023-06-18T10:02:28.099Z,24.60
2023-06-18T10:05:00.159Z,24.90
2023-06-18T10:07:37.770Z,25.00
2023-06-18T10:10:19.344Z,25.30
2023-06-18T10:13:08.472Z,25.40
2023-06-18T10:15:44.709Z,25.60
2023-06-18T10:18:25.217Z,25.70
2023-06-18T10:21:06.202Z,25.50
2023-06-18T10:23:52.106Z,25.60
2023-06-18T10:26:34.846Z,25.70
2023-06-18T10:29:10.348Z,25.80
2023-06-18T10:31:52.061Z,25.70
2023-06-18T10:34:23.799Z,25.90
2023-06-18T10:37:04.468Z,25.70
2023-06-18T10:39:43.089Z,25.60
2023-06-18T10:42:21.242Z,25.50
2023-06-18T10:44:55.827Z,25.70
2023-06-18T10:47:32.089Z,25.70
2023-06-18T10:50:23.867Z,26.00
2023-06-18T10:52:57.598Z,26.00
2023-06-18T10:55:41.324Z,26.20
2023-06-18T10:58:46.637Z,26.10
2023-06-18T11:01:32.521Z,25.90
2023-06-18T11:04:10.983Z,26.10
2023-06-18T11:06:49.672Z,26.20
2023-06-18T11:09:29.173Z,26.00
2023-06-18T11:12:02.049Z,25.70
2023-06-18T11:14:37.001Z,25.60
2023-06-18T11:17:17.708Z,25.60
2023-06-18T11:19:53.332Z,25.50
2023-06-18T11:22:28.868Z,25.70
2023-06-18T11:25:12.164Z,25.60
2023-06-18T11:27:47.376Z,25.50
2023-06-18T11:30:36.070Z,25.50
2023-06-18T11:33:17.381Z,25.40
2023-06-18T11:35:57.073Z,25.30
2023-06-18T11:38:38.360Z,25.30
2023-06-18T11:41:20.071Z,25.70
2023-06-18T11:44:04.008Z,25.70
2023-06-18T11:46:57.537Z,26.10
2023-06-18T11:49:34.291Z,26.10
2023-06-18T11:52:12.514Z,26.10
2023-06-18T11:54:48.563Z,26.10
2023-06-18T11:57:25.155Z,26.30
2023-06-18T11:59:57.926Z,26.60
2023-06-18T12:02:34.650Z,27.00
2023-06-18T12:05:27.347Z,27.20
2023-06-18T12:08:11.721Z,27.70
2023-06-18T12:10:49.355Z,28.20
2023-06-18T12:13:37.768Z,28.50
2023-06-18T12:16:18.423Z,28.60
2023-06-18T12:19:06.898Z,28.60
2023-06-18T12:21:40.314Z,28.30
2023-06-18T12:24:23.422Z,28.30
2023-06-18T12:26:56.037Z,28.20
2023-06-18T12:29:34.411Z,28.10
2023-06-18T12:32:12.987Z,27.70
2023-06-18T12:35:00.418Z,27.60
2023-06-18T12:37:43.579Z,27.60
2023-06-18T12:40:28.226Z,27.40
2023-06-18T12:43:09.767Z,27.70
2023-06-18T12:45:41.958Z,27.50
2023-06-18T12:48:21.050Z,27.50
2023-06-18T12:51:06.078Z,27.50
2023-06-18T12:53:37.248Z,27.20
2023-06-18T12:56:35.551Z,26.80
2023-06-18T12:59:15.178Z,26.70
2023-06-18T13:01:58.037Z,26.80
2023-06-18T13:04:30.824Z,27.10
2023-06-18T13:07:15.315Z,27.50
2023-06-18T13:09:56.411Z,27.70
2023-06-18T13:12:28.703Z,28.00
2023-06-18T13:15:10.274Z,28.30
2023-06-18T13:17:45.206Z,28.40
2023-06-18T13:20:20.766Z,28.50
2023-06-18T13:23:04.716Z,28.30
2023-06-18T13:25:47.891Z,28.30
2023-06-18T13:28:24.272Z,27.90
2023-06-18T13:30:59.074Z,28.10
2023-06-18T13:33:30.272Z,28.20
2023-06-18T13:36:11.751Z,28.50
2023-06-18T13:38:56.832Z,28.60
2023-06-18T13:41:33.093Z,28.40
2023-06-18T13:44:18.667Z,28.30
2023-06-18T13:46:51.556Z,28.10
2023-06-18T13:49:41.599Z,28.00
2023-06-18T13:52:23.382Z,28.00
2023-06-18T13:55:02.237Z,28.10
2023-06-18T13:57:49.148Z,28.10
2023-06-18T14:00:27.172Z,28.00
2023-06-18T14:03:07.471Z,28.00
2023-06-18T14:05:51.870Z,28.20
2023-06-18T14:08:37.541Z,28.40
2023-06-18T14:11:16.905Z,28.70
2023-06-18T14:14:00.838Z,28.70
2023-06-18T14:16:43.833Z,28.60
2023-06-18T14:19:23.413Z,28.50
2023-06-18T14:22:10.448Z,28.50
2023-06-18T14:24:56.009Z,28.40
2023-06-18T14:27:43.832Z,28.20
2023-06-18T14:30:22.487Z,27.80
2023-06-18T14:33:10.726Z,27.60
2023-06-18T14:35:49.619Z,27.50
2023-06-18T14:38:31.748Z,27.40
2023-06-18T14:41:03.519Z,27.30
2023-06-18T14:43:43.040Z,27.10
2023-06-18T14:46:18.296Z,27.00
2023-06-18T14:49:01.447Z,26.90
2023-06-18T14:51:42.249Z,26.70
2023-06-18T14:54:27.057Z,26.60
2023-06-18T14:57:00.196Z,26.50
2023-06-18T14:59:40.730Z,26.60
2023-06-18T15:02:29.192Z,26.40
2023-06-18T15:05:05.269Z,26.40
2023-06-18T15:07:46.871Z,26.30
2023-06-18T15:10:27.302Z,26.10
2023-06-18T15:12:58.962Z,26.00
2023-06-18T15:15:32.988Z,26.10
2023-06-18T15:18:17.486Z,26.10
2023-06-18T15:21:04.702Z,26.20
2023-06-18T15:23:43.719Z,26.30
2023-06-18T15:26:23.210Z,26.40
2023-06-18T15:29:04.784Z,26.40
2023-06-18T15:31:57.276Z,26.40
2023-06-18T15:34:41.555Z,26.50
2023-06-18T15:37:20.593Z,26.50
2023-06-18T15:39:59.724Z,26.50
2023-06-18T15:42:34.829Z,26.50
2023-06-18T15:45:15.879Z,26.40
2023-06-18T15:47:56.540Z,26.40
2023-06-18T15:50:31.190Z,26.40
2023-06-18T15:53:13.984Z,26.50
2023-06-18T15:55:45.590Z,26.40
2023-06-18T15:58:25.685Z,26.50
2023-06-18T16:01:01.172Z,26.50
2023-06-18T16:03:50.099Z,26.50
2023-06-18T16:06:28.743Z,26.50
2023-06-18T16:09:09.424Z,26.60
2023-06-18T16:11:40.887Z,26.60
2023-06-18T16:14:09.798Z,26.60
2023-06-18T16:16:39.098Z,26.60
2023-06-18T16:19:09.479Z,26.70
2023-06-18T16:21:38.407Z,26.70
2023-06-18T16:24:07.820Z,26.70
2023-06-18T16:26:38.035Z,26.60
2023-06-18T16:29:06.833Z,26.80
2023-06-18T16:31:35.720Z,26.80
2023-06-18T16:34:04.646Z,26.90
2023-06-18T16:36:40.216Z,27.00
2023-06-18T16:39:12.412Z,27.00
2023-06-18T16:41:41.215Z,27.20
2023-06-18T16:44:10.428Z,27.20
2023-06-18T16:46:39.442Z,27.30
2023-06-18T16:49:08.240Z,27.70
2023-06-18T16:51:38.577Z,28.00
2023-06-18T16:54:07.459Z,28.10
2023-06-18T16:56:36.226Z,28.20
2023-06-18T16:59:05.299Z,28.60
2023-06-18T17:01:34.636Z,28.70
2023-06-18T17:04:04.865Z,28.50
2023-06-18T17:06:34.776Z,28.60
2023-06-18T17:09:07.452Z,29.00
2023-06-18T17:11:36.346Z,29.20
2023-06-18T17:14:05.433Z,29.20
2023-06-18T17:16:34.372Z,29.30
2023-06-18T17:19:03.327Z,29.30
2023-06-18T17:21:32.225Z,29.40
2023-06-18T17:24:03.440Z,29.40
2023-06-18T17:26:35.648Z,29.10
2023-06-18T17:29:04.542Z,28.60
2023-06-18T17:31:33.922Z,28.50
2023-06-18T17:34:02.881Z,28.40
2023-06-18T17:36:31.775Z,28.30
2023-06-18T17:39:00.630Z,28.10
2023-06-18T17:41:29.444Z,27.80
2023-06-18T17:43:59.708Z,27.70
2023-06-18T17:46:28.783Z,27.70
2023-06-18T17:48:58.353Z,27.60
2023-06-18T17:51:28.537Z,27.50
2023-06-18T17:53:57.672Z,27.40
2023-06-18T17:56:26.943Z,27.50
2023-06-18T17:58:56.235Z,27.40
2023-06-18T18:01:26.675Z,27.20
2023-06-18T18:03:55.871Z,27.10
2023-06-18T18:06:25.093Z,27.10
2023-06-18T18:08:56.459Z,27.00
2023-06-18T18:11:28.000Z,27.00
2023-06-18T18:13:57.319Z,26.80
2023-06-18T18:16:27.745Z,26.80
2023-06-18T18:18:57.449Z,26.80
2023-06-18T18:21:26.589Z,26.80
2023-06-18T18:23:55.505Z,26.80
2023-06-18T18:26:35.597Z,26.80
2023-06-18T18:29:14.476Z,26.80
2023-06-18T18:31:44.932Z,26.70
2023-06-18T18:34:13.811Z,26.60
2023-06-18T18:36:42.872Z,26.60
2023-06-18T18:39:11.861Z,26.60
2023-06-18T18:41:42.426Z,26.60
2023-06-18T18:44:11.485Z,26.50
2023-06-18T18:46:40.423Z,26.50
2023-06-18T18:49:10.806Z,26.60
2023-06-18T18:51:39.563Z,26.60
2023-06-18T18:54:08.800Z,26.60
2023-06-18T18:56:37.654Z,26.60
2023-06-18T18:59:06.714Z,26.50
2023-06-18T19:01:35.615Z,26.50
2023-06-18T19:04:04.479Z,26.50
2023-06-18T19:06:34.769Z,26.50
2023-06-18T19:09:03.704Z,26.40
2023-06-18T19:11:32.688Z,26.40
2023-06-18T19:14:01.728Z,26.40
2023-06-18T19:16:30.884Z,26.30
2023-06-18T19:18:59.854Z,26.30
2023-06-18T19:21:28.857Z,26.20
2023-06-18T19:23:59.187Z,26.20
2023-06-18T19:26:28.281Z,26.20
2023-06-18T19:28:57.282Z,26.20
2023-06-18T19:31:26.242Z,26.10
2023-06-18T19:33:55.114Z,26.00
2023-06-18T19:36:24.092Z,26.10
2023-06-18T19:38:53.835Z,26.00
2023-06-18T19:41:24.309Z,25.90
2023-06-18T19:43:53.170Z,25.80
2023-06-18T19:46:22.184Z,25.80
2023-06-18T19:48:51.150Z,25.70
2023-06-18T19:51:20.008Z,25.70
2023-06-18T19:53:48.966Z,25.70
2023-06-18T19:56:19.272Z,25.50
2023-06-18T19:58:49.610Z,25.40
2023-06-18T20:01:18.613Z,25.30
2023-06-18T20:03:47.471Z,25.40
2023-06-18T20:06:16.568Z,25.40
2023-06-18T20:08:45.423Z,25.30
2023-06-18T20:11:14.809Z,25.30
2023-06-18T20:13:43.910Z,25.30
2023-06-18T20:16:14.315Z,25.20
2023-06-18T20:18:43.256Z,25.30
2023-06-18T20:21:13.206Z,25.20
2023-06-18T20:23:42.248Z,25.10
2023-06-18T20:26:11.241Z,25.10
2023-06-18T20:28:40.295Z,25.20
2023-06-18T20:31:09.289Z,25.10
2023-06-18T20:33:41.068Z,25.10
2023-06-18T20:36:10.148Z,25.00
2023-06-18T20:38:39.087Z,25.10
2023-06-18T20:41:08.827Z,25.20
2023-06-18T20:43:37.823Z,25.20
2023-06-18T20:46:06.869Z,25.30
2023-06-18T20:48:36.593Z,25.30
2023-06-18T20:51:08.348Z,25.30
2023-06-18T20:53:37.963Z,25.30
2023-06-18T20:56:07.560Z,25.20
2023-06-18T20:58:36.514Z,25.20
2023-06-18T21:01:05.913Z,25.00
2023-06-18T21:03:37.706Z,25.00
2023-06-18T21:06:08.058Z,25.00
2023-06-18T21:08:37.113Z,24.90
2023-06-18T21:11:05.942Z,24.80
2023-06-18T21:13:34.857Z,24.70
2023-06-18T21:16:03.772Z,24.40
2023-06-18T21:18:32.802Z,24.30
2023-06-18T21:21:01.722Z,24.10
2023-06-18T21:23:33.508Z,24.10
2023-06-18T21:26:02.435Z,24.00
2023-06-18T21:28:31.683Z,23.90
2023-06-18T21:31:00.900Z,23.90
2023-06-18T21:33:29.834Z,23.70
2023-06-18T21:35:58.844Z,23.70
2023-06-18T21:38:27.959Z,23.60
2023-06-18T21:40:58.355Z,23.70
2023-06-18T21:43:27.221Z,23.50
2023-06-18T21:45:59.761Z,23.50
2023-06-18T21:48:29.452Z,23.40
2023-06-18T21:51:02.066Z,23.40
2023-06-18T21:53:31.186Z,23.30
2023-06-18T21:56:04.972Z,23.20
2023-06-18T21:58:34.024Z,23.20
2023-06-18T22:01:04.403Z,23.20
2023-06-18T22:03:33.339Z,23.10
2023-06-18T22:06:02.374Z,23.10
2023-06-18T22:08:41.249Z,23.00
2023-06-18T22:11:11.563Z,23.00
2023-06-18T22:13:41.238Z,22.90
2023-06-18T22:16:10.414Z,22.90
2023-06-18T22:18:39.613Z,22.80
2023-06-18T22:21:08.521Z,22.70
2023-06-18T22:23:38.225Z,22.60
2023-06-18T22:26:07.592Z,22.60
2023-06-18T22:28:37.975Z,22.50
2023-06-18T22:31:06.890Z,22.50
2023-06-18T22:33:35.916Z,22.40
2023-06-18T22:36:05.019Z,22.40
2023-06-18T22:38:33.927Z,22.40
2023-06-18T22:41:02.813Z,22.30
2023-06-18T22:43:31.850Z,22.30
2023-06-18T22:46:05.836Z,22.30
2023-06-18T22:48:34.875Z,22.30
2023-06-18T22:51:03.687Z,22.20
2023-06-18T22:53:32.614Z,22.20
2023-06-18T22:56:01.515Z,22.20
2023-06-18T22:58:30.389Z,22.20
2023-06-18T23:00:59.440Z,22.10
2023-06-18T23:03:29.730Z,22.00
2023-06-18T23:05:58.727Z,21.90
2023-06-18T23:08:27.509Z,21.90
2023-06-18T23:10:56.461Z,21.80
2023-06-18T23:13:25.350Z,21.80
2023-06-18T23:15:55.487Z,21.70
2023-06-18T23:18:27.449Z,21.70
2023-06-18T23:20:57.861Z,21.70
2023-06-18T23:23:29.813Z,21.70
2023-06-18T23:25:58.796Z,21.60
2023-06-18T23:28:28.120Z,21.60
2023-06-18T23:30:56.967Z,21.60
2023-06-18T23:33:25.821Z,21.60
2023-06-18T23:35:54.625Z,21.50
2023-06-18T23:38:25.137Z,21.40
2023-06-18T23:40:54.068Z,21.40
2023-06-18T23:43:22.988Z,21.40
2023-06-18T23:45:51.796Z,21.40
2023-06-18T23:48:20.822Z,21.40
2023-06-18T23:50:50.374Z,21.40
2023-06-18T23:53:19.383Z,21.30
2023-06-18T23:55:49.502Z,21.20
2023-06-18T23:58:18.513Z,21.20
